sensor_id;sensor_type;location;lat;lon;timestamp;P1;durP1;ratioP1;P2;durP2;ratioP2
19187;SDS011;9726;52.198;8.792;2022-12-07T00:01:49;27.23;;;16.23;;
19187;SDS011;9726;52.198;8.792;2022-12-07T00:04:17;27.43;;;15.10;;
19187;SDS011;9726;52.198;8.792;2022-12-07T00:06:45;22.93;;;16.20;;
19187;SDS011;9726;52.198;8.792;2022-12-07T00:09:14;28.13;;;17.87;;
19187;SDS011;9726;52.198;8.792;2022-12-07T00:11:42;28.30;;;17.13;;
19187;SDS011;9726;52.198;8.792;2022-12-07T00:14:10;32.00;;;16.87;;
19187;SDS011;9726;52.198;8.792;2022-12-07T00:16:38;30.07;;;17.57;;
19187;SDS011;9726;52.198;8.792;2022-12-07T00:19:06;30.23;;;18.73;;
19187;SDS011;9726;52.198;8.792;2022-12-07T00:21:34;28.87;;;17.87;;
19187;SDS011;9726;52.198;8.792;2022-12-07T00:24:02;28.90;;;18.20;;
19187;SDS011;9726;52.198;8.792;2022-12-07T00:26:31;28.10;;;15.70;;
19187;SDS011;9726;52.198;8.792;2022-12-07T00:29:04;31.80;;;17.00;;
19187;SDS011;9726;52.198;8.792;2022-12-07T00:31:33;37.60;;;17.80;;
19187;SDS011;9726;52.198;8.792;2022-12-07T00:34:01;30.67;;;18.87;;
19187;SDS011;9726;52.198;8.792;2022-12-07T00:36:28;33.93;;;19.83;;
19187;SDS011;9726;52.198;8.792;2022-12-07T00:38:57;36.00;;;21.23;;
19187;SDS011;9726;52.198;8.792;2022-12-07T00:41:26;41.60;;;22.47;;
19187;SDS011;9726;52.198;8.792;2022-12-07T00:43:53;41.80;;;22.20;;
19187;SDS011;9726;52.198;8.792;2022-12-07T00:46:21;38.23;;;22.30;;
19187;SDS011;9726;52.198;8.792;2022-12-07T00:48:49;44.70;;;26.50;;
19187;SDS011;9726;52.198;8.792;2022-12-07T00:51:17;39.80;;;22.73;;
19187;SDS011;9726;52.198;8.792;2022-12-07T00:53:45;38.43;;;20.83;;
19187;SDS011;9726;52.198;8.792;2022-12-07T00:56:20;43.63;;;24.37;;
19187;SDS011;9726;52.198;8.792;2022-12-07T00:58:52;44.33;;;24.47;;
19187;SDS011;9726;52.198;8.792;2022-12-07T01:01:19;47.57;;;24.27;;
19187;SDS011;9726;52.198;8.792;2022-12-07T01:03:47;48.20;;;26.07;;
19187;SDS011;9726;52.198;8.792;2022-12-07T01:06:15;41.97;;;24.93;;
19187;SDS011;9726;52.198;8.792;2022-12-07T01:08:43;42.80;;;24.37;;
19187;SDS011;9726;52.198;8.792;2022-12-07T01:11:12;44.30;;;26.70;;
19187;SDS011;9726;52.198;8.792;2022-12-07T01:13:39;60.00;;;27.43;;
19187;SDS011;9726;52.198;8.792;2022-12-07T01:16:07;47.13;;;24.97;;
19187;SDS011;9726;52.198;8.792;2022-12-07T01:18:35;46.97;;;29.27;;
19187;SDS011;9726;52.198;8.792;2022-12-07T01:21:06;48.90;;;22.47;;
19187;SDS011;9726;52.198;8.792;2022-12-07T01:23:34;49.37;;;27.37;;
19187;SDS011;9726;52.198;8.792;2022-12-07T01:26:03;48.37;;;24.67;;
19187;SDS011;9726;52.198;8.792;2022-12-07T01:28:31;44.40;;;25.93;;
19187;SDS011;9726;52.198;8.792;2022-12-07T01:31:03;41.70;;;24.53;;
19187;SDS011;9726;52.198;8.792;2022-12-07T01:33:32;47.17;;;27.10;;
19187;SDS011;9726;52.198;8.792;2022-12-07T01:36:00;49.00;;;28.67;;
19187;SDS011;9726;52.198;8.792;2022-12-07T01:38:28;42.13;;;24.87;;
19187;SDS011;9726;52.198;8.792;2022-12-07T01:40:56;46.87;;;26.70;;
19187;SDS011;9726;52.198;8.792;2022-12-07T01:43:24;48.33;;;28.13;;
19187;SDS011;9726;52.198;8.792;2022-12-07T01:45:52;49.53;;;27.73;;
19187;SDS011;9726;52.198;8.792;2022-12-07T01:48:25;54.93;;;29.27;;
19187;SDS011;9726;52.198;8.792;2022-12-07T01:50:53;52.80;;;28.47;;
19187;SDS011;9726;52.198;8.792;2022-12-07T01:53:21;49.33;;;29.10;;
19187;SDS011;9726;52.198;8.792;2022-12-07T01:55:49;47.20;;;25.80;;
19187;SDS011;9726;52.198;8.792;2022-12-07T01:58:19;52.33;;;25.93;;
19187;SDS011;9726;52.198;8.792;2022-12-07T02:00:47;49.80;;;25.37;;
19187;SDS011;9726;52.198;8.792;2022-12-07T02:03:19;48.20;;;22.33;;
19187;SDS011;9726;52.198;8.792;2022-12-07T02:05:48;44.20;;;25.30;;
19187;SDS011;9726;52.198;8.792;2022-12-07T02:08:16;47.40;;;25.87;;
19187;SDS011;9726;52.198;8.792;2022-12-07T02:10:44;44.60;;;22.60;;
19187;SDS011;9726;52.198;8.792;2022-12-07T02:18:32;50.43;;;26.43;;
19187;SDS011;9726;52.198;8.792;2022-12-07T02:21:09;47.77;;;23.10;;
19187;SDS011;9726;52.198;8.792;2022-12-07T02:31:19;40.93;;;21.90;;
19187;SDS011;9726;52.198;8.792;2022-12-07T02:33:50;35.60;;;18.70;;
19187;SDS011;9726;52.198;8.792;2022-12-07T02:36:27;46.57;;;21.93;;
19187;SDS011;9726;52.198;8.792;2022-12-07T02:38:57;37.30;;;20.57;;
19187;SDS011;9726;52.198;8.792;2022-12-07T02:41:31;31.73;;;17.10;;
19187;SDS011;9726;52.198;8.792;2022-12-07T02:47:56;39.90;;;20.50;;
19187;SDS011;9726;52.198;8.792;2022-12-07T02:50:25;28.23;;;15.70;;
19187;SDS011;9726;52.198;8.792;2022-12-07T02:52:52;29.17;;;14.90;;
19187;SDS011;9726;52.198;8.792;2022-12-07T02:55:22;24.37;;;13.57;;
19187;SDS011;9726;52.198;8.792;2022-12-07T02:57:54;33.70;;;17.33;;
19187;SDS011;9726;52.198;8.792;2022-12-07T03:00:27;31.07;;;17.10;;
19187;SDS011;9726;52.198;8.792;2022-12-07T03:03:00;29.80;;;15.73;;
19187;SDS011;9726;52.198;8.792;2022-12-07T03:08:16;30.80;;;15.93;;
19187;SDS011;9726;52.198;8.792;2022-12-07T03:10:56;30.47;;;15.07;;
19187;SDS011;9726;52.198;8.792;2022-12-07T03:16:18;31.50;;;15.43;;
19187;SDS011;9726;52.198;8.792;2022-12-07T03:18:57;34.03;;;15.23;;
19187;SDS011;9726;52.198;8.792;2022-12-07T03:21:38;29.70;;;15.33;;
19187;SDS011;9726;52.198;8.792;2022-12-07T03:24:08;29.43;;;14.77;;
19187;SDS011;9726;52.198;8.792;2022-12-07T03:26:37;26.87;;;15.07;;
19187;SDS011;9726;52.198;8.792;2022-12-07T03:29:07;26.23;;;15.40;;
19187;SDS011;9726;52.198;8.792;2022-12-07T03:31:36;31.47;;;16.50;;
19187;SDS011;9726;52.198;8.792;2022-12-07T03:34:11;33.50;;;16.53;;
19187;SDS011;9726;52.198;8.792;2022-12-07T03:41:41;30.27;;;15.63;;
19187;SDS011;9726;52.198;8.792;2022-12-07T03:44:10;32.93;;;16.13;;
19187;SDS011;9726;52.198;8.792;2022-12-07T03:56:43;29.43;;;13.90;;
19187;SDS011;9726;52.198;8.792;2022-12-07T03:59:11;32.13;;;15.53;;
19187;SDS011;9726;52.198;8.792;2022-12-07T04:01:41;36.10;;;16.00;;
19187;SDS011;9726;52.198;8.792;2022-12-07T04:04:08;31.47;;;15.53;;
19187;SDS011;9726;52.198;8.792;2022-12-07T04:06:36;29.03;;;14.30;;
19187;SDS011;9726;52.198;8.792;2022-12-07T04:09:03;31.90;;;16.37;;
19187;SDS011;9726;52.198;8.792;2022-12-07T04:11:30;29.17;;;13.87;;
19187;SDS011;9726;52.198;8.792;2022-12-07T04:13:58;26.40;;;13.83;;
19187;SDS011;9726;52.198;8.792;2022-12-07T04:16:44;32.53;;;14.67;;
19187;SDS011;9726;52.198;8.792;2022-12-07T04:19:12;32.40;;;14.00;;
19187;SDS011;9726;52.198;8.792;2022-12-07T04:21:39;31.17;;;14.30;;
19187;SDS011;9726;52.198;8.792;2022-12-07T04:24:07;30.17;;;12.73;;
19187;SDS011;9726;52.198;8.792;2022-12-07T04:26:34;30.50;;;13.20;;
19187;SDS011;9726;52.198;8.792;2022-12-07T04:29:02;26.10;;;12.33;;
19187;SDS011;9726;52.198;8.792;2022-12-07T04:31:33;26.83;;;9.93;;
19187;SDS011;9726;52.198;8.792;2022-12-07T04:34:00;25.20;;;13.30;;
19187;SDS011;9726;52.198;8.792;2022-12-07T04:36:28;27.33;;;12.17;;
19187;SDS011;9726;52.198;8.792;2022-12-07T04:38:55;33.80;;;12.63;;
19187;SDS011;9726;52.198;8.792;2022-12-07T04:41:23;27.33;;;10.93;;
19187;SDS011;9726;52.198;8.792;2022-12-07T04:46:21;20.90;;;10.57;;
19187;SDS011;9726;52.198;8.792;2022-12-07T04:48:49;26.73;;;10.33;;
19187;SDS011;9726;52.198;8.792;2022-12-07T04:51:21;29.30;;;10.37;;
19187;SDS011;9726;52.198;8.792;2022-12-07T04:53:49;18.23;;;10.23;;
19187;SDS011;9726;52.198;8.792;2022-12-07T04:56:16;19.93;;;9.43;;
19187;SDS011;9726;52.198;8.792;2022-12-07T04:58:45;22.63;;;10.87;;
19187;SDS011;9726;52.198;8.792;2022-12-07T05:01:13;19.53;;;9.67;;
19187;SDS011;9726;52.198;8.792;2022-12-07T05:03:41;24.23;;;8.70;;
19187;SDS011;9726;52.198;8.792;2022-12-07T05:06:09;13.30;;;7.63;;
19187;SDS011;9726;52.198;8.792;2022-12-07T05:08:39;14.70;;;8.93;;
19187;SDS011;9726;52.198;8.792;2022-12-07T05:11:07;23.93;;;9.27;;
19187;SDS011;9726;52.198;8.792;2022-12-07T05:13:35;29.33;;;10.05;;
19187;SDS011;9726;52.198;8.792;2022-12-07T05:16:02;27.53;;;9.70;;
19187;SDS011;9726;52.198;8.792;2022-12-07T05:18:30;19.60;;;7.77;;
19187;SDS011;9726;52.198;8.792;2022-12-07T05:20:57;14.20;;;7.40;;
19187;SDS011;9726;52.198;8.792;2022-12-07T05:23:25;18.97;;;9.57;;
19187;SDS011;9726;52.198;8.792;2022-12-07T05:25:52;21.80;;;7.90;;
19187;SDS011;9726;52.198;8.792;2022-12-07T05:28:20;17.97;;;8.43;;
19187;SDS011;9726;52.198;8.792;2022-12-07T05:30:47;23.97;;;9.57;;
19187;SDS011;9726;52.198;8.792;2022-12-07T05:33:15;18.80;;;8.60;;
19187;SDS011;9726;52.198;8.792;2022-12-07T05:35:43;20.87;;;9.57;;
19187;SDS011;9726;52.198;8.792;2022-12-07T05:38:10;18.10;;;9.90;;
19187;SDS011;9726;52.198;8.792;2022-12-07T05:40:38;26.30;;;10.17;;
19187;SDS011;9726;52.198;8.792;2022-12-07T05:43:06;24.90;;;11.10;;
19187;SDS011;9726;52.198;8.792;2022-12-07T05:45:33;19.17;;;9.90;;
19187;SDS011;9726;52.198;8.792;2022-12-07T05:48:01;32.03;;;10.93;;
19187;SDS011;9726;52.198;8.792;2022-12-07T05:50:28;23.67;;;8.83;;
19187;SDS011;9726;52.198;8.792;2022-12-07T05:53:02;24.57;;;10.50;;
19187;SDS011;9726;52.198;8.792;2022-12-07T05:55:29;23.67;;;7.17;;
19187;SDS011;9726;52.198;8.792;2022-12-07T05:57:57;15.17;;;9.03;;
19187;SDS011;9726;52.198;8.792;2022-12-07T06:00:43;10.53;;;6.37;;
19187;SDS011;9726;52.198;8.792;2022-12-07T06:03:16;21.57;;;8.33;;
19187;SDS011;9726;52.198;8.792;2022-12-07T06:05:44;14.73;;;7.83;;
19187;SDS011;9726;52.198;8.792;2022-12-07T06:08:11;14.40;;;7.47;;
19187;SDS011;9726;52.198;8.792;2022-12-07T06:10:41;16.47;;;7.63;;
19187;SDS011;9726;52.198;8.792;2022-12-07T06:13:08;20.40;;;7.23;;
19187;SDS011;9726;52.198;8.792;2022-12-07T06:15:36;15.10;;;6.63;;
19187;SDS011;9726;52.198;8.792;2022-12-07T06:18:04;21.97;;;6.83;;
19187;SDS011;9726;52.198;8.792;2022-12-07T06:20:31;21.50;;;6.33;;
19187;SDS011;9726;52.198;8.792;2022-12-07T06:22:58;19.37;;;4.67;;
19187;SDS011;9726;52.198;8.792;2022-12-07T06:25:26;19.33;;;6.10;;
19187;SDS011;9726;52.198;8.792;2022-12-07T06:27:53;9.73;;;5.30;;
19187;SDS011;9726;52.198;8.792;2022-12-07T06:30:21;13.67;;;6.70;;
19187;SDS011;9726;52.198;8.792;2022-12-07T06:32:49;15.73;;;6.03;;
19187;SDS011;9726;52.198;8.792;2022-12-07T06:35:16;15.00;;;6.83;;
19187;SDS011;9726;52.198;8.792;2022-12-07T06:37:44;17.30;;;6.60;;
19187;SDS011;9726;52.198;8.792;2022-12-07T06:40:11;15.63;;;6.37;;
19187;SDS011;9726;52.198;8.792;2022-12-07T06:42:39;23.20;;;6.40;;
19187;SDS011;9726;52.198;8.792;2022-12-07T06:45:06;19.27;;;7.27;;
19187;SDS011;9726;52.198;8.792;2022-12-07T06:47:34;20.83;;;8.13;;
19187;SDS011;9726;52.198;8.792;2022-12-07T06:50:09;19.17;;;5.60;;
19187;SDS011;9726;52.198;8.792;2022-12-07T06:52:36;15.03;;;6.80;;
19187;SDS011;9726;52.198;8.792;2022-12-07T06:55:04;17.73;;;7.67;;
19187;SDS011;9726;52.198;8.792;2022-12-07T06:57:31;22.43;;;7.80;;
19187;SDS011;9726;52.198;8.792;2022-12-07T06:59:59;19.13;;;6.50;;
19187;SDS011;9726;52.198;8.792;2022-12-07T07:02:27;20.80;;;6.07;;
19187;SDS011;9726;52.198;8.792;2022-12-07T07:04:55;20.97;;;7.03;;
19187;SDS011;9726;52.198;8.792;2022-12-07T07:07:22;20.43;;;7.13;;
19187;SDS011;9726;52.198;8.792;2022-12-07T07:09:50;21.00;;;6.93;;
19187;SDS011;9726;52.198;8.792;2022-12-07T07:12:17;19.73;;;6.83;;
19187;SDS011;9726;52.198;8.792;2022-12-07T07:14:45;13.43;;;6.27;;
19187;SDS011;9726;52.198;8.792;2022-12-07T07:17:12;12.73;;;5.30;;
19187;SDS011;9726;52.198;8.792;2022-12-07T07:19:39;17.17;;;7.30;;
19187;SDS011;9726;52.198;8.792;2022-12-07T07:22:07;12.73;;;6.17;;
19187;SDS011;9726;52.198;8.792;2022-12-07T07:24:35;20.43;;;8.87;;
19187;SDS011;9726;52.198;8.792;2022-12-07T07:27:02;16.00;;;7.13;;
19187;SDS011;9726;52.198;8.792;2022-12-07T07:29:29;19.27;;;6.90;;
19187;SDS011;9726;52.198;8.792;2022-12-07T07:31:57;18.60;;;6.73;;
19187;SDS011;9726;52.198;8.792;2022-12-07T07:34:31;18.10;;;6.37;;
19187;SDS011;9726;52.198;8.792;2022-12-07T07:36:59;15.83;;;7.40;;
19187;SDS011;9726;52.198;8.792;2022-12-07T07:39:26;16.00;;;6.40;;
19187;SDS011;9726;52.198;8.792;2022-12-07T07:41:54;14.20;;;5.77;;
19187;SDS011;9726;52.198;8.792;2022-12-07T07:44:25;24.13;;;6.80;;
19187;SDS011;9726;52.198;8.792;2022-12-07T07:47:00;9.37;;;5.70;;
19187;SDS011;9726;52.198;8.792;2022-12-07T07:49:27;16.80;;;6.73;;
19187;SDS011;9726;52.198;8.792;2022-12-07T07:51:55;18.53;;;6.00;;
19187;SDS011;9726;52.198;8.792;2022-12-07T07:54:22;17.17;;;7.30;;
19187;SDS011;9726;52.198;8.792;2022-12-07T07:56:50;13.67;;;6.50;;
19187;SDS011;9726;52.198;8.792;2022-12-07T07:59:17;20.57;;;6.30;;
19187;SDS011;9726;52.198;8.792;2022-12-07T08:01:45;13.53;;;6.37;;
19187;SDS011;9726;52.198;8.792;2022-12-07T08:04:12;16.27;;;4.37;;
19187;SDS011;9726;52.198;8.792;2022-12-07T08:06:40;19.63;;;6.37;;
19187;SDS011;9726;52.198;8.792;2022-12-07T08:09:08;16.83;;;5.80;;
19187;SDS011;9726;52.198;8.792;2022-12-07T08:11:36;25.17;;;5.17;;
19187;SDS011;9726;52.198;8.792;2022-12-07T08:14:04;18.40;;;5.60;;
19187;SDS011;9726;52.198;8.792;2022-12-07T08:16:31;15.70;;;5.20;;
19187;SDS011;9726;52.198;8.792;2022-12-07T08:18:59;11.10;;;4.13;;
19187;SDS011;9726;52.198;8.792;2022-12-07T08:21:26;15.57;;;5.23;;
19187;SDS011;9726;52.198;8.792;2022-12-07T08:23:54;9.83;;;3.13;;
19187;SDS011;9726;52.198;8.792;2022-12-07T08:26:21;13.63;;;5.30;;
19187;SDS011;9726;52.198;8.792;2022-12-07T08:28:48;21.17;;;5.70;;
19187;SDS011;9726;52.198;8.792;2022-12-07T08:31:16;16.93;;;5.67;;
19187;SDS011;9726;52.198;8.792;2022-12-07T08:33:46;15.47;;;4.77;;
19187;SDS011;9726;52.198;8.792;2022-12-07T08:36:14;13.60;;;4.17;;
19187;SDS011;9726;52.198;8.792;2022-12-07T08:38:41;12.50;;;4.23;;
19187;SDS011;9726;52.198;8.792;2022-12-07T08:41:29;14.07;;;4.07;;
19187;SDS011;9726;52.198;8.792;2022-12-07T08:43:57;13.47;;;3.63;;
19187;SDS011;9726;52.198;8.792;2022-12-07T08:46:25;13.17;;;5.30;;
19187;SDS011;9726;52.198;8.792;2022-12-07T08:48:57;7.13;;;3.50;;
19187;SDS011;9726;52.198;8.792;2022-12-07T08:51:25;15.47;;;3.93;;
19187;SDS011;9726;52.198;8.792;2022-12-07T08:53:53;13.47;;;3.77;;
19187;SDS011;9726;52.198;8.792;2022-12-07T08:56:21;7.90;;;3.47;;
19187;SDS011;9726;52.198;8.792;2022-12-07T08:58:48;9.57;;;3.77;;
19187;SDS011;9726;52.198;8.792;2022-12-07T09:01:16;16.13;;;3.70;;
19187;SDS011;9726;52.198;8.792;2022-12-07T09:03:43;15.63;;;4.30;;
19187;SDS011;9726;52.198;8.792;2022-12-07T09:06:11;15.27;;;4.40;;
19187;SDS011;9726;52.198;8.792;2022-12-07T09:08:40;18.83;;;4.33;;
19187;SDS011;9726;52.198;8.792;2022-12-07T09:11:09;10.17;;;4.00;;
19187;SDS011;9726;52.198;8.792;2022-12-07T09:13:37;6.10;;;2.90;;
19187;SDS011;9726;52.198;8.792;2022-12-07T09:16:04;15.33;;;5.00;;
19187;SDS011;9726;52.198;8.792;2022-12-07T09:18:32;19.73;;;4.17;;
19187;SDS011;9726;52.198;8.792;2022-12-07T09:21:01;15.60;;;4.27;;
19187;SDS011;9726;52.198;8.792;2022-12-07T09:23:28;11.53;;;3.93;;
19187;SDS011;9726;52.198;8.792;2022-12-07T09:26:00;15.63;;;3.70;;
19187;SDS011;9726;52.198;8.792;2022-12-07T09:28:35;12.60;;;4.07;;
19187;SDS011;9726;52.198;8.792;2022-12-07T09:31:03;7.20;;;2.80;;
19187;SDS011;9726;52.198;8.792;2022-12-07T09:33:55;10.00;;;3.60;;
19187;SDS011;9726;52.198;8.792;2022-12-07T09:36:23;14.20;;;4.20;;
19187;SDS011;9726;52.198;8.792;2022-12-07T09:38:51;8.60;;;3.70;;
19187;SDS011;9726;52.198;8.792;2022-12-07T09:41:18;10.30;;;3.93;;
19187;SDS011;9726;52.198;8.792;2022-12-07T09:43:46;10.27;;;3.93;;
19187;SDS011;9726;52.198;8.792;2022-12-07T09:46:14;13.40;;;4.80;;
19187;SDS011;9726;52.198;8.792;2022-12-07T09:48:44;12.90;;;4.50;;
19187;SDS011;9726;52.198;8.792;2022-12-07T09:53:49;11.67;;;3.87;;
19187;SDS011;9726;52.198;8.792;2022-12-07T09:56:18;13.80;;;4.90;;
19187;SDS011;9726;52.198;8.792;2022-12-07T09:58:46;16.30;;;4.57;;
19187;SDS011;9726;52.198;8.792;2022-12-07T10:01:18;15.23;;;4.80;;
19187;SDS011;9726;52.198;8.792;2022-12-07T10:03:52;13.93;;;4.07;;
19187;SDS011;9726;52.198;8.792;2022-12-07T10:06:20;13.57;;;4.47;;
19187;SDS011;9726;52.198;8.792;2022-12-07T10:08:48;6.47;;;3.93;;
19187;SDS011;9726;52.198;8.792;2022-12-07T10:11:15;10.10;;;4.27;;
19187;SDS011;9726;52.198;8.792;2022-12-07T10:13:44;14.03;;;4.23;;
19187;SDS011;9726;52.198;8.792;2022-12-07T10:18:48;11.03;;;4.37;;
19187;SDS011;9726;52.198;8.792;2022-12-07T10:24:02;13.47;;;4.17;;
19187;SDS011;9726;52.198;8.792;2022-12-07T10:26:31;21.87;;;4.80;;
19187;SDS011;9726;52.198;8.792;2022-12-07T10:31:39;7.20;;;2.10;;
19187;SDS011;9726;52.198;8.792;2022-12-07T10:34:15;10.97;;;2.40;;
19187;SDS011;9726;52.198;8.792;2022-12-07T10:36:47;14.50;;;2.63;;
19187;SDS011;9726;52.198;8.792;2022-12-07T10:39:15;10.63;;;2.40;;
19187;SDS011;9726;52.198;8.792;2022-12-07T10:41:54;15.60;;;2.37;;
19187;SDS011;9726;52.198;8.792;2022-12-07T10:44:29;13.60;;;2.90;;
19187;SDS011;9726;52.198;8.792;2022-12-07T10:59:51;20.80;;;3.10;;
19187;SDS011;9726;52.198;8.792;2022-12-07T11:02:23;13.33;;;3.20;;
19187;SDS011;9726;52.198;8.792;2022-12-07T11:07:50;11.90;;;2.90;;
19187;SDS011;9726;52.198;8.792;2022-12-07T11:10:41;18.40;;;3.93;;
19187;SDS011;9726;52.198;8.792;2022-12-07T11:23:45;10.93;;;2.50;;
19187;SDS011;9726;52.198;8.792;2022-12-07T11:34:10;10.30;;;2.40;;
19187;SDS011;9726;52.198;8.792;2022-12-07T11:36:45;10.67;;;2.33;;
19187;SDS011;9726;52.198;8.792;2022-12-07T11:41:49;4.73;;;2.23;;
19187;SDS011;9726;52.198;8.792;2022-12-07T11:51:51;9.93;;;2.00;;
19187;SDS011;9726;52.198;8.792;2022-12-07T11:54:27;14.63;;;3.17;;
19187;SDS011;9726;52.198;8.792;2022-12-07T11:56:56;7.43;;;2.50;;
19187;SDS011;9726;52.198;8.792;2022-12-07T11:59:29;11.83;;;2.43;;
19187;SDS011;9726;52.198;8.792;2022-12-07T12:02:02;6.47;;;2.13;;
19187;SDS011;9726;52.198;8.792;2022-12-07T12:07:15;9.40;;;2.97;;
19187;SDS011;9726;52.198;8.792;2022-12-07T12:10:05;7.07;;;2.33;;
19187;SDS011;9726;52.198;8.792;2022-12-07T12:25:40;8.13;;;2.60;;
19187;SDS011;9726;52.198;8.792;2022-12-07T12:28:27;4.73;;;2.40;;
19187;SDS011;9726;52.198;8.792;2022-12-07T12:33:33;13.07;;;2.93;;
19187;SDS011;9726;52.198;8.792;2022-12-07T12:44:02;15.43;;;2.33;;
19187;SDS011;9726;52.198;8.792;2022-12-07T12:51:46;10.73;;;2.20;;
19187;SDS011;9726;52.198;8.792;2022-12-07T12:54:24;2.27;;;1.50;;
19187;SDS011;9726;52.198;8.792;2022-12-07T13:10:21;8.43;;;1.57;;
19187;SDS011;9726;52.198;8.792;2022-12-07T13:13:00;8.20;;;2.53;;
19187;SDS011;9726;52.198;8.792;2022-12-07T13:15:35;6.33;;;1.87;;
19187;SDS011;9726;52.198;8.792;2022-12-07T13:18:04;13.37;;;2.53;;
19187;SDS011;9726;52.198;8.792;2022-12-07T13:23:19;14.63;;;2.90;;
19187;SDS011;9726;52.198;8.792;2022-12-07T13:28:39;9.30;;;2.77;;
19187;SDS011;9726;52.198;8.792;2022-12-07T13:31:14;11.93;;;3.63;;
19187;SDS011;9726;52.198;8.792;2022-12-07T13:33:44;13.00;;;2.53;;
19187;SDS011;9726;52.198;8.792;2022-12-07T13:36:14;12.97;;;2.70;;
19187;SDS011;9726;52.198;8.792;2022-12-07T13:38:48;19.13;;;4.40;;
19187;SDS011;9726;52.198;8.792;2022-12-07T13:41:17;5.87;;;2.10;;
19187;SDS011;9726;52.198;8.792;2022-12-07T13:43:47;6.00;;;2.13;;
19187;SDS011;9726;52.198;8.792;2022-12-07T13:46:15;10.23;;;2.13;;
19187;SDS011;9726;52.198;8.792;2022-12-07T13:48:47;13.23;;;2.90;;
19187;SDS011;9726;52.198;8.792;2022-12-07T13:53:47;15.87;;;2.57;;
19187;SDS011;9726;52.198;8.792;2022-12-07T13:56:15;9.73;;;3.03;;
19187;SDS011;9726;52.198;8.792;2022-12-07T13:58:42;6.60;;;2.13;;
19187;SDS011;9726;52.198;8.792;2022-12-07T14:01:11;9.93;;;2.67;;
19187;SDS011;9726;52.198;8.792;2022-12-07T14:03:39;3.23;;;1.63;;
19187;SDS011;9726;52.198;8.792;2022-12-07T14:06:15;13.17;;;2.70;;
19187;SDS011;9726;52.198;8.792;2022-12-07T14:08:43;11.20;;;2.73;;
19187;SDS011;9726;52.198;8.792;2022-12-07T14:11:14;9.27;;;3.00;;
19187;SDS011;9726;52.198;8.792;2022-12-07T14:18:51;18.00;;;2.93;;
19187;SDS011;9726;52.198;8.792;2022-12-07T14:21:19;13.33;;;3.47;;
19187;SDS011;9726;52.198;8.792;2022-12-07T14:26:37;17.13;;;3.27;;
19187;SDS011;9726;52.198;8.792;2022-12-07T14:31:51;8.50;;;2.67;;
19187;SDS011;9726;52.198;8.792;2022-12-07T14:34:19;6.43;;;2.37;;
19187;SDS011;9726;52.198;8.792;2022-12-07T14:36:47;9.70;;;2.73;;
19187;SDS011;9726;52.198;8.792;2022-12-07T14:39:14;14.60;;;3.10;;
19187;SDS011;9726;52.198;8.792;2022-12-07T14:41:42;14.23;;;2.63;;
19187;SDS011;9726;52.198;8.792;2022-12-07T14:44:19;7.53;;;2.63;;
19187;SDS011;9726;52.198;8.792;2022-12-07T14:46:49;15.37;;;3.20;;
19187;SDS011;9726;52.198;8.792;2022-12-07T14:49:37;10.90;;;3.20;;
19187;SDS011;9726;52.198;8.792;2022-12-07T14:52:05;14.40;;;2.73;;
19187;SDS011;9726;52.198;8.792;2022-12-07T14:54:57;7.53;;;2.30;;
19187;SDS011;9726;52.198;8.792;2022-12-07T14:57:24;14.83;;;2.73;;
19187;SDS011;9726;52.198;8.792;2022-12-07T14:59:51;17.17;;;2.90;;
19187;SDS011;9726;52.198;8.792;2022-12-07T15:02:19;7.77;;;2.90;;
19187;SDS011;9726;52.198;8.792;2022-12-07T15:04:46;14.53;;;2.40;;
19187;SDS011;9726;52.198;8.792;2022-12-07T15:07:16;10.07;;;2.40;;
19187;SDS011;9726;52.198;8.792;2022-12-07T15:09:46;10.50;;;2.80;;
19187;SDS011;9726;52.198;8.792;2022-12-07T15:12:14;6.90;;;2.20;;
19187;SDS011;9726;52.198;8.792;2022-12-07T15:14:41;18.10;;;3.30;;
19187;SDS011;9726;52.198;8.792;2022-12-07T15:17:10;6.20;;;2.20;;
19187;SDS011;9726;52.198;8.792;2022-12-07T15:19:51;12.77;;;2.10;;
19187;SDS011;9726;52.198;8.792;2022-12-07T15:22:18;9.20;;;2.50;;
19187;SDS011;9726;52.198;8.792;2022-12-07T15:24:46;11.27;;;2.73;;
19187;SDS011;9726;52.198;8.792;2022-12-07T15:27:13;16.17;;;2.80;;
19187;SDS011;9726;52.198;8.792;2022-12-07T15:29:41;17.77;;;4.17;;
19187;SDS011;9726;52.198;8.792;2022-12-07T15:32:08;15.57;;;2.80;;
19187;SDS011;9726;52.198;8.792;2022-12-07T15:34:35;18.97;;;3.47;;
19187;SDS011;9726;52.198;8.792;2022-12-07T15:37:06;19.93;;;2.80;;
19187;SDS011;9726;52.198;8.792;2022-12-07T15:39:35;25.97;;;7.13;;
19187;SDS011;9726;52.198;8.792;2022-12-07T15:42:02;17.47;;;3.67;;
19187;SDS011;9726;52.198;8.792;2022-12-07T15:44:30;12.80;;;3.23;;
19187;SDS011;9726;52.198;8.792;2022-12-07T15:47:16;17.13;;;4.10;;
19187;SDS011;9726;52.198;8.792;2022-12-07T15:49:43;8.33;;;2.70;;
19187;SDS011;9726;52.198;8.792;2022-12-07T15:52:11;8.10;;;2.30;;
19187;SDS011;9726;52.198;8.792;2022-12-07T15:54:39;7.47;;;3.03;;
19187;SDS011;9726;52.198;8.792;2022-12-07T15:57:06;5.57;;;2.20;;
19187;SDS011;9726;52.198;8.792;2022-12-07T15:59:34;8.03;;;1.90;;
19187;SDS011;9726;52.198;8.792;2022-12-07T16:02:01;7.93;;;1.87;;
19187;SDS011;9726;52.198;8.792;2022-12-07T16:04:29;7.93;;;3.77;;
19187;SDS011;9726;52.198;8.792;2022-12-07T16:06:56;12.17;;;2.53;;
19187;SDS011;9726;52.198;8.792;2022-12-07T16:09:24;12.87;;;3.13;;
19187;SDS011;9726;52.198;8.792;2022-12-07T16:11:52;11.67;;;2.70;;
19187;SDS011;9726;52.198;8.792;2022-12-07T16:14:19;13.00;;;2.60;;
19187;SDS011;9726;52.198;8.792;2022-12-07T16:16:47;9.03;;;3.10;;
19187;SDS011;9726;52.198;8.792;2022-12-07T16:19:15;12.13;;;4.50;;
19187;SDS011;9726;52.198;8.792;2022-12-07T16:21:42;12.70;;;4.40;;
19187;SDS011;9726;52.198;8.792;2022-12-07T16:24:10;13.50;;;3.60;;
19187;SDS011;9726;52.198;8.792;2022-12-07T16:26:39;11.03;;;3.77;;
19187;SDS011;9726;52.198;8.792;2022-12-07T16:29:15;11.10;;;3.63;;
19187;SDS011;9726;52.198;8.792;2022-12-07T16:31:42;7.77;;;3.63;;
19187;SDS011;9726;52.198;8.792;2022-12-07T16:34:12;14.87;;;3.97;;
19187;SDS011;9726;52.198;8.792;2022-12-07T16:36:40;14.60;;;3.27;;
19187;SDS011;9726;52.198;8.792;2022-12-07T16:39:27;17.67;;;4.33;;
19187;SDS011;9726;52.198;8.792;2022-12-07T16:41:55;17.77;;;7.23;;
19187;SDS011;9726;52.198;8.792;2022-12-07T16:44:23;14.83;;;7.53;;
19187;SDS011;9726;52.198;8.792;2022-12-07T16:46:50;18.33;;;6.50;;
19187;SDS011;9726;52.198;8.792;2022-12-07T16:49:18;12.57;;;5.10;;
19187;SDS011;9726;52.198;8.792;2022-12-07T16:51:48;10.47;;;3.70;;
19187;SDS011;9726;52.198;8.792;2022-12-07T16:54:36;11.07;;;4.00;;
19187;SDS011;9726;52.198;8.792;2022-12-07T16:57:03;8.70;;;2.83;;
19187;SDS011;9726;52.198;8.792;2022-12-07T16:59:31;8.97;;;3.77;;
19187;SDS011;9726;52.198;8.792;2022-12-07T17:01:58;7.50;;;3.37;;
19187;SDS011;9726;52.198;8.792;2022-12-07T17:04:25;10.83;;;3.03;;
19187;SDS011;9726;52.198;8.792;2022-12-07T17:06:53;9.93;;;4.00;;
19187;SDS011;9726;52.198;8.792;2022-12-07T17:09:20;8.47;;;2.90;;
19187;SDS011;9726;52.198;8.792;2022-12-07T17:11:48;8.37;;;3.67;;
19187;SDS011;9726;52.198;8.792;2022-12-07T17:14:15;12.93;;;3.13;;
19187;SDS011;9726;52.198;8.792;2022-12-07T17:17:01;11.03;;;3.20;;
19187;SDS011;9726;52.198;8.792;2022-12-07T17:19:29;9.50;;;3.30;;
19187;SDS011;9726;52.198;8.792;2022-12-07T17:21:57;7.03;;;2.90;;
19187;SDS011;9726;52.198;8.792;2022-12-07T17:24:24;15.87;;;3.80;;
19187;SDS011;9726;52.198;8.792;2022-12-07T17:26:51;13.87;;;4.73;;
19187;SDS011;9726;52.198;8.792;2022-12-07T17:29:19;13.80;;;4.30;;
19187;SDS011;9726;52.198;8.792;2022-12-07T17:31:47;12.27;;;5.27;;
19187;SDS011;9726;52.198;8.792;2022-12-07T17:34:17;11.87;;;5.03;;
19187;SDS011;9726;52.198;8.792;2022-12-07T17:36:45;23.20;;;5.20;;
19187;SDS011;9726;52.198;8.792;2022-12-07T17:39:14;24.93;;;6.57;;